createdAt,value
2023-03-07T00:01:26.192Z,98704.31
2023-03-07T00:03:54.482Z,98702.81
2023-03-07T00:06:25.125Z,98693.41
2023-03-07T00:08:56.209Z,98696.50
2023-03-07T00:11:25.049Z,98688.97
2023-03-07T00:13:53.310Z,98685.81
2023-03-07T00:16:24.924Z,98690.69
2023-03-07T00:18:53.043Z,98680.97
2023-03-07T00:21:24.168Z,98681.78
2023-03-07T00:23:54.112Z,98687.81
2023-03-07T00:26:24.225Z,98674.69
2023-03-07T00:28:54.927Z,98667.03
2023-03-07T00:31:24.803Z,98671.78
2023-03-07T00:33:53.303Z,98670.25
2023-03-07T00:36:24.640Z,98670.50
2023-03-07T00:38:53.719Z,98671.50
2023-03-07T00:41:23.178Z,98676.81
2023-03-07T00:43:52.497Z,98672.81
2023-03-07T00:46:22.094Z,98673.06
2023-03-07T00:48:51.124Z,98664.16
2023-03-07T00:51:20.848Z,98659.09
2023-03-07T00:53:51.278Z,98667.81
2023-03-07T00:56:20.819Z,98673.13
2023-03-07T00:58:49.255Z,98671.44
2023-03-07T01:01:19.583Z,98665.28
2023-03-07T01:03:49.950Z,98668.28
2023-03-07T01:06:20.444Z,98658.03
2023-03-07T01:08:48.679Z,98652.03
2023-03-07T01:11:18.645Z,98646.97
2023-03-07T01:13:47.336Z,98648.75
2023-03-07T01:16:19.699Z,98638.66
2023-03-07T01:18:51.186Z,98632.19
2023-03-07T01:21:21.765Z,98628.66
2023-03-07T01:23:50.185Z,98624.88
2023-03-07T01:26:21.649Z,98609.19
2023-03-07T01:28:51.967Z,98607.16
2023-03-07T01:31:20.503Z,98604.00
2023-03-07T01:33:49.259Z,98607.56
2023-03-07T01:36:19.741Z,98597.88
2023-03-07T01:38:48.223Z,98595.03
2023-03-07T01:41:16.762Z,98588.75
2023-03-07T01:43:46.797Z,98589.34
2023-03-07T01:46:52.873Z,98579.53
2023-03-07T01:49:26.127Z,98572.00
2023-03-07T01:52:00.141Z,98568.91
2023-03-07T01:54:29.415Z,98572.88
2023-03-07T01:56:59.214Z,98569.19
2023-03-07T01:59:33.141Z,98565.91
2023-03-07T02:02:06.776Z,98562.34
2023-03-07T02:04:38.215Z,98560.59
2023-03-07T02:07:09.699Z,98561.28
2023-03-07T02:09:39.374Z,98560.22
2023-03-07T02:12:09.852Z,98558.31
2023-03-07T02:14:45.290Z,98554.91
2023-03-07T02:17:17.965Z,98549.56
2023-03-07T02:20:01.343Z,98547.41
2023-03-07T02:22:30.898Z,98536.06
2023-03-07T02:25:03.769Z,98535.44
2023-03-07T02:27:37.829Z,98529.13
2023-03-07T02:30:07.096Z,98520.00
2023-03-07T02:32:41.330Z,98517.03
2023-03-07T02:35:15.832Z,98515.25
2023-03-07T02:37:47.700Z,98516.22
2023-03-07T02:40:18.044Z,98506.38
2023-03-07T02:42:48.809Z,98500.25
2023-03-07T02:45:19.753Z,98500.25
2023-03-07T02:47:48.072Z,98497.66
2023-03-07T02:50:17.746Z,98494.75
2023-03-07T02:52:46.195Z,98487.78
2023-03-07T02:55:14.550Z,98486.72
2023-03-07T02:57:43.230Z,98482.75
2023-03-07T03:00:14.792Z,98476.44
2023-03-07T03:02:43.169Z,98473.72
2023-03-07T03:05:11.362Z,98470.16
2023-03-07T03:07:39.982Z,98465.13
2023-03-07T03:10:09.379Z,98469.34
2023-03-07T03:12:38.731Z,98459.91
2023-03-07T03:15:10.056Z,98457.75
2023-03-07T03:17:39.906Z,98458.44
2023-03-07T03:20:12.031Z,98451.84
2023-03-07T03:22:40.730Z,98455.00
2023-03-07T03:25:14.261Z,98449.69
2023-03-07T03:27:43.411Z,98439.84
2023-03-07T03:30:14.200Z,98438.75
2023-03-07T03:32:44.626Z,98432.28
2023-03-07T03:35:13.063Z,98434.34
2023-03-07T03:37:41.656Z,98424.66
2023-03-07T03:40:14.823Z,98422.88
2023-03-07T03:42:45.425Z,98424.75
2023-03-07T03:45:15.230Z,98421.75
2023-03-07T03:47:45.255Z,98426.22
2023-03-07T03:50:13.738Z,98414.59
2023-03-07T03:52:45.352Z,98424.28
2023-03-07T03:55:13.923Z,98423.72
2023-03-07T03:57:42.206Z,98418.25
2023-03-07T04:00:14.828Z,98413.28
2023-03-07T04:02:45.269Z,98408.34
2023-03-07T04:05:14.720Z,98403.22
2023-03-07T04:07:45.545Z,98403.47
2023-03-07T04:10:14.001Z,98401.94
2023-03-07T04:12:43.257Z,98403.16
2023-03-07T04:15:13.234Z,98395.69
2023-03-07T04:17:41.437Z,98391.31
2023-03-07T04:20:17.996Z,98387.03
2023-03-07T04:22:46.331Z,98379.88
2023-03-07T04:25:14.495Z,98370.00
2023-03-07T04:27:43.536Z,98364.66
2023-03-07T04:30:12.896Z,98367.78
2023-03-07T04:32:42.772Z,98356.91
2023-03-07T04:35:13.003Z,98346.22
2023-03-07T04:37:41.275Z,98342.50
2023-03-07T04:40:10.822Z,98333.72
2023-03-07T04:42:39.148Z,98334.88
2023-03-07T04:45:08.878Z,98325.81
2023-03-07T04:47:39.562Z,98320.16
2023-03-07T04:50:09.115Z,98324.06
2023-03-07T04:53:02.459Z,98316.13
2023-03-07T04:55:30.832Z,98320.75
2023-03-07T04:57:59.352Z,98310.31
2023-03-07T05:00:27.624Z,98308.72
2023-03-07T05:03:02.318Z,98297.06
2023-03-07T05:05:30.597Z,98293.47
2023-03-07T05:08:00.358Z,98296.94
2023-03-07T05:10:29.069Z,98288.84
2023-03-07T05:12:58.113Z,98282.34
2023-03-07T05:15:27.210Z,98278.63
2023-03-07T05:17:55.551Z,98279.78
2023-03-07T05:20:24.478Z,98274.78
2023-03-07T05:23:00.652Z,98276.91
2023-03-07T05:25:30.814Z,98274.97
2023-03-07T05:27:59.049Z,98267.66
2023-03-07T05:30:27.679Z,98263.94
2023-03-07T05:32:56.045Z,98260.84
2023-03-07T05:35:25.973Z,98256.00
2023-03-07T05:37:54.694Z,98253.06
2023-03-07T05:40:23.081Z,98249.34
2023-03-07T05:42:53.010Z,98254.41
2023-03-07T05:45:21.802Z,98252.94
2023-03-07T05:47:50.112Z,98242.66
2023-03-07T05:50:21.318Z,98246.44
2023-03-07T05:52:49.724Z,98249.56
2023-03-07T05:55:18.632Z,98241.41
2023-03-07T05:57:48.371Z,98237.66
2023-03-07T06:00:19.666Z,98232.44
2023-03-07T06:02:48.252Z,98231.31
2023-03-07T06:05:17.073Z,98226.63
2023-03-07T06:07:45.250Z,98232.31
2023-03-07T06:10:14.415Z,98227.59
2023-03-07T06:12:42.729Z,98218.31
2023-03-07T06:15:12.576Z,98211.78
2023-03-07T06:17:42.365Z,98214.91
2023-03-07T06:20:13.630Z,98204.97
2023-03-07T06:22:42.146Z,98206.09
2023-03-07T06:25:11.298Z,98204.16
2023-03-07T06:27:40.595Z,98202.03
2023-03-07T06:30:10.402Z,98196.34
2023-03-07T06:32:38.832Z,98194.84
2023-03-07T06:35:09.743Z,98191.75
2023-03-07T06:37:37.946Z,98195.84
2023-03-07T06:40:09.584Z,98188.47
2023-03-07T06:42:38.431Z,98173.19
2023-03-07T06:45:08.480Z,98170.88
2023-03-07T06:47:36.801Z,98161.91
2023-03-07T06:50:26.429Z,98159.47
2023-03-07T06:52:59.862Z,98153.41
2023-03-07T06:55:28.201Z,98146.72
2023-03-07T06:57:56.752Z,98144.06
2023-03-07T07:00:25.602Z,98149.25
2023-03-07T07:02:54.024Z,98141.75
2023-03-07T07:05:22.536Z,98135.06
2023-03-07T07:07:50.978Z,98131.09
2023-03-07T07:10:20.719Z,98122.59
2023-03-07T07:12:49.135Z,98123.69
2023-03-07T07:15:20.809Z,98121.56
2023-03-07T07:17:49.196Z,98105.38
2023-03-07T07:20:17.677Z,98112.53
2023-03-07T07:22:46.200Z,98105.00
2023-03-07T07:25:14.533Z,98093.88
2023-03-07T07:27:44.897Z,98094.81
2023-03-07T07:30:14.020Z,98082.03
2023-03-07T07:32:42.434Z,98089.00
2023-03-07T07:35:11.163Z,98076.41
2023-03-07T07:37:44.595Z,98082.38
2023-03-07T07:40:15.199Z,98066.81
2023-03-07T07:42:45.061Z,98071.97
2023-03-07T07:45:13.442Z,98059.38
2023-03-07T07:47:41.691Z,98049.97
2023-03-07T07:50:11.188Z,98046.50
2023-03-07T07:52:39.423Z,98043.16
2023-03-07T07:55:09.063Z,98037.06
2023-03-07T07:57:37.595Z,98037.44
2023-03-07T08:00:11.105Z,98025.69
2023-03-07T08:02:39.668Z,98019.47
2023-03-07T08:05:10.526Z,98013.94
2023-03-07T08:07:38.892Z,98012.06
2023-03-07T08:10:09.074Z,98001.50
2023-03-07T08:12:37.773Z,98001.59
2023-03-07T08:15:09.476Z,97996.25
2023-03-07T08:17:37.996Z,97995.31
2023-03-07T08:20:10.091Z,97993.41
2023-03-07T08:22:38.765Z,97978.38
2023-03-07T08:25:08.009Z,97975.56
2023-03-07T08:27:36.441Z,97969.56
2023-03-07T08:30:05.451Z,97973.09
2023-03-07T08:32:35.653Z,97963.88
2023-03-07T08:35:04.229Z,97955.41
2023-03-07T08:37:32.455Z,97957.50
2023-03-07T08:40:00.691Z,97949.00
2023-03-07T08:42:28.914Z,97944.81
2023-03-07T08:44:57.194Z,97931.91
2023-03-07T08:47:26.759Z,97922.41
2023-03-07T08:49:56.507Z,97917.59
2023-03-07T08:52:25.201Z,97916.59
2023-03-07T08:54:53.481Z,97908.50
2023-03-07T08:57:21.772Z,97909.97
2023-03-07T08:59:50.232Z,97900.09
2023-03-07T09:02:18.623Z,97890.22
2023-03-07T09:04:47.466Z,97870.50
2023-03-07T09:07:19.328Z,97886.00
2023-03-07T09:09:47.748Z,97870.28
2023-03-07T09:12:17.763Z,97866.47
2023-03-07T09:14:46.041Z,97862.47
2023-03-07T09:17:14.844Z,97848.34
2023-03-07T09:19:43.370Z,97854.84
2023-03-07T09:22:11.845Z,97845.97
2023-03-07T09:24:41.563Z,97826.97
2023-03-07T09:27:11.568Z,97827.97
2023-03-07T09:29:39.957Z,97817.50
2023-03-07T09:32:08.697Z,97807.63
2023-03-07T09:34:37.007Z,97797.53
2023-03-07T09:37:05.433Z,97797.94
2023-03-07T09:39:34.068Z,97792.31
2023-03-07T09:42:16.969Z,97783.88
2023-03-07T09:45:10.218Z,97794.16
2023-03-07T09:48:00.000Z,97775.59
2023-03-07T09:50:36.681Z,97774.03
2023-03-07T09:53:06.720Z,97770.00
2023-03-07T09:55:35.327Z,97753.84
2023-03-07T09:58:12.893Z,97758.72
2023-03-07T10:00:46.078Z,97744.56
2023-03-07T10:03:23.660Z,97734.88
2023-03-07T10:05:56.261Z,97742.19
2023-03-07T10:08:31.341Z,97719.13
2023-03-07T10:11:12.753Z,97735.16
2023-03-07T10:13:58.951Z,97721.41
2023-03-07T10:16:33.193Z,97712.75
2023-03-07T10:19:21.720Z,97710.94
2023-03-07T10:21:59.640Z,97702.88
2023-03-07T10:24:42.161Z,97697.63
2023-03-07T10:27:12.861Z,97686.28
2023-03-07T10:29:48.085Z,97687.53
2023-03-07T10:32:23.276Z,97678.81
2023-03-07T10:34:59.408Z,97672.16
2023-03-07T10:37:37.975Z,97657.59
2023-03-07T10:40:06.946Z,97666.28
2023-03-07T10:42:39.778Z,97636.97
2023-03-07T10:45:14.013Z,97638.34
2023-03-07T10:47:42.579Z,97630.88
2023-03-07T10:50:27.701Z,97606.59
2023-03-07T10:52:58.832Z,97613.47
2023-03-07T10:55:39.582Z,97605.38
2023-03-07T10:58:21.476Z,97604.38
2023-03-07T11:01:10.716Z,97603.13
2023-03-07T11:03:52.731Z,97596.50
2023-03-07T11:06:44.748Z,97589.81
2023-03-07T11:09:19.513Z,97592.28
2023-03-07T11:11:55.123Z,97582.56
2023-03-07T11:14:24.393Z,97578.53
2023-03-07T11:16:56.981Z,97581.56
2023-03-07T11:19:38.407Z,97563.56
2023-03-07T11:22:22.519Z,97558.72
2023-03-07T11:24:55.813Z,97567.22
2023-03-07T11:27:28.342Z,97547.03
2023-03-07T11:30:25.694Z,97542.78
2023-03-07T11:33:11.778Z,97545.81
2023-03-07T11:36:00.041Z,97545.00
2023-03-07T11:38:42.798Z,97528.63
2023-03-07T11:41:17.180Z,97525.19
2023-03-07T11:44:01.374Z,97509.81
2023-03-07T11:46:41.743Z,97503.75
2023-03-07T11:49:25.942Z,97499.72
2023-03-07T11:52:08.615Z,97488.03
2023-03-07T11:54:49.433Z,97484.38
2023-03-07T11:57:27.288Z,97478.28
2023-03-07T12:00:26.284Z,97468.34
2023-03-07T12:03:30.393Z,97457.63
2023-03-07T12:06:16.869Z,97445.09
2023-03-07T12:09:09.382Z,97451.13
2023-03-07T12:12:01.069Z,97441.63
2023-03-07T12:14:42.427Z,97439.63
2023-03-07T12:17:24.288Z,97413.34
2023-03-07T12:20:27.349Z,97414.56
2023-03-07T12:23:11.273Z,97431.75
2023-03-07T12:25:43.422Z,97417.22
2023-03-07T12:28:18.976Z,97412.19
2023-03-07T12:30:56.597Z,97388.94
2023-03-07T12:33:30.658Z,97389.34
2023-03-07T12:36:05.790Z,97385.56
2023-03-07T12:38:44.232Z,97380.50
2023-03-07T12:41:25.746Z,97374.03
2023-03-07T12:43:58.464Z,97361.13
2023-03-07T12:46:37.463Z,97358.06
2023-03-07T12:49:12.946Z,97351.16
2023-03-07T12:51:47.091Z,97344.69
2023-03-07T12:54:22.215Z,97332.53
2023-03-07T12:56:56.844Z,97330.72
2023-03-07T12:59:26.010Z,97321.97
2023-03-07T13:02:00.449Z,97298.75
2023-03-07T13:04:33.504Z,97315.34
2023-03-07T13:07:10.172Z,97300.19
2023-03-07T13:09:42.776Z,97293.72
2023-03-07T13:12:34.140Z,97290.63
2023-03-07T13:15:03.924Z,97268.81
2023-03-07T13:17:58.761Z,97263.72
2023-03-07T13:20:45.468Z,97261.91
2023-03-07T13:23:29.916Z,97263.91
2023-03-07T13:26:17.875Z,97262.00
2023-03-07T13:29:05.059Z,97253.31
2023-03-07T13:31:46.836Z,97250.09
2023-03-07T13:34:52.702Z,97242.41
2023-03-07T13:37:54.146Z,97234.41
2023-03-07T13:40:44.500Z,97220.88
2023-03-07T13:43:52.600Z,97239.69
2023-03-07T13:46:49.583Z,97219.47
2023-03-07T13:49:50.749Z,97225.31
2023-03-07T13:52:41.040Z,97214.59
2023-03-07T13:55:39.665Z,97236.03
2023-03-07T13:58:29.797Z,97214.00
2023-03-07T14:01:02.544Z,97205.28
2023-03-07T14:03:37.105Z,97188.03
2023-03-07T14:06:12.420Z,97194.47
2023-03-07T14:08:41.029Z,97189.44
2023-03-07T14:11:19.906Z,97184.75
2023-03-07T14:14:16.887Z,97184.16
2023-03-07T14:17:03.062Z,97184.75
2023-03-07T14:19:50.157Z,97178.69
2023-03-07T14:22:28.590Z,97173.22
2023-03-07T14:25:16.699Z,97161.09
2023-03-07T14:28:19.493Z,97179.59
2023-03-07T14:30:57.466Z,97156.78
2023-03-07T14:33:33.073Z,97157.78
2023-03-07T14:36:04.985Z,97152.41
2023-03-07T14:38:34.229Z,97159.91
2023-03-07T14:41:26.687Z,97149.81
2023-03-07T14:44:06.671Z,97142.56
2023-03-07T14:46:59.683Z,97137.91
2023-03-07T14:49:38.964Z,97138.56
2023-03-07T14:52:28.248Z,97134.38
2023-03-07T14:55:00.916Z,97119.84
2023-03-07T14:57:33.383Z,97118.03
2023-03-07T15:00:12.775Z,97119.03
2023-03-07T15:02:59.140Z,97114.00
2023-03-07T15:05:29.096Z,97114.44
2023-03-07T15:08:02.848Z,97100.97
2023-03-07T15:10:36.620Z,97114.56
2023-03-07T15:13:11.003Z,97097.19
2023-03-07T15:15:47.304Z,97096.81
2023-03-07T15:18:23.560Z,97083.91
2023-03-07T15:20:53.860Z,97095.84
2023-03-07T15:23:25.387Z,97081.97
2023-03-07T15:25:56.712Z,97074.91
2023-03-07T15:28:28.578Z,97063.81
2023-03-07T15:30:58.624Z,97075.91
2023-03-07T15:33:29.268Z,97063.59
2023-03-07T15:36:28.055Z,97058.34
2023-03-07T15:39:28.097Z,97054.09
2023-03-07T15:42:05.266Z,97055.13
2023-03-07T15:44:34.357Z,97051.69
2023-03-07T15:47:14.972Z,97044.63
2023-03-07T15:49:47.392Z,97040.38
2023-03-07T15:52:23.589Z,97032.38
2023-03-07T15:54:57.383Z,97029.50
2023-03-07T15:57:28.343Z,97024.50
2023-03-07T16:00:00.515Z,97030.97
2023-03-07T16:02:42.075Z,97036.66
2023-03-07T16:05:38.393Z,97015.69
2023-03-07T16:08:14.590Z,97003.00
2023-03-07T16:10:52.327Z,97015.97
2023-03-07T16:13:24.554Z,97015.38
2023-03-07T16:16:04.530Z,97014.63
2023-03-07T16:18:37.452Z,97030.00
2023-03-07T16:21:06.132Z,97023.13
2023-03-07T16:23:38.341Z,97008.25
2023-03-07T16:26:09.340Z,97012.69
2023-03-07T16:28:38.015Z,97012.31
2023-03-07T16:31:12.458Z,97035.91
2023-03-07T16:33:43.141Z,97020.59
2023-03-07T16:36:14.601Z,97007.91
2023-03-07T16:38:45.011Z,96992.16
2023-03-07T16:41:19.330Z,96977.72
2023-03-07T16:43:49.798Z,97031.34
2023-03-07T16:46:19.952Z,97002.53
2023-03-07T16:48:48.292Z,97004.75
2023-03-07T16:51:21.472Z,96991.63
2023-03-07T16:53:51.449Z,97001.09
2023-03-07T16:56:28.489Z,96997.88
2023-03-07T16:58:57.095Z,96978.53
2023-03-07T17:01:27.549Z,96983.56
2023-03-07T17:03:56.699Z,97005.34
2023-03-07T17:06:38.437Z,96953.09
2023-03-07T17:09:09.648Z,96981.34
2023-03-07T17:11:46.636Z,96965.03
2023-03-07T17:14:18.917Z,96979.94
2023-03-07T17:16:49.318Z,96988.03
2023-03-07T17:19:32.954Z,96988.69
2023-03-07T17:22:03.797Z,96991.50
2023-03-07T17:24:33.906Z,96972.78
2023-03-07T17:27:03.890Z,96972.19
2023-03-07T17:29:37.083Z,96988.72
2023-03-07T17:32:06.248Z,96986.50
2023-03-07T17:34:36.480Z,96979.28
2023-03-07T17:37:05.814Z,96973.25
2023-03-07T17:39:35.745Z,96987.16
2023-03-07T17:42:05.966Z,96995.22
2023-03-07T17:44:35.098Z,96981.31
2023-03-07T17:47:05.738Z,96990.78
2023-03-07T17:49:34.777Z,96996.78
2023-03-07T17:52:03.310Z,96996.56
2023-03-07T17:54:32.525Z,96987.53
2023-03-07T17:57:01.024Z,96983.09
2023-03-07T17:59:32.094Z,96979.69
2023-03-07T18:02:00.650Z,96976.00
2023-03-07T18:04:31.464Z,96979.09
2023-03-07T18:07:00.475Z,96967.78
2023-03-07T18:09:31.786Z,96972.63
2023-03-07T18:12:01.932Z,96973.63
2023-03-07T18:14:52.980Z,96977.06
2023-03-07T18:17:26.045Z,96971.81
2023-03-07T18:19:54.345Z,96974.84
2023-03-07T18:22:22.565Z,96961.75
2023-03-07T18:24:53.980Z,96965.00
2023-03-07T18:27:22.711Z,96965.78
2023-03-07T18:29:54.149Z,96975.47
2023-03-07T18:32:23.010Z,96967.22
2023-03-07T18:34:53.711Z,96968.47
2023-03-07T18:37:23.076Z,96967.66
2023-03-07T18:39:51.350Z,96980.56
2023-03-07T18:42:19.713Z,96965.25
2023-03-07T18:44:48.074Z,96968.50
2023-03-07T18:47:17.785Z,96970.91
2023-03-07T18:49:45.985Z,96979.56
2023-03-07T18:52:14.212Z,96976.94
2023-03-07T18:54:42.720Z,96974.16
2023-03-07T18:57:11.100Z,96972.75
2023-03-07T18:59:39.956Z,96969.16
2023-03-07T19:02:08.719Z,96972.00
2023-03-07T19:04:38.396Z,96956.69
2023-03-07T19:07:06.822Z,96987.31
2023-03-07T19:09:35.115Z,96973.41
2023-03-07T19:12:05.583Z,96971.81
2023-03-07T19:14:33.935Z,96977.28
2023-03-07T19:17:03.673Z,96971.44
2023-03-07T19:19:31.981Z,96972.84
2023-03-07T19:22:02.411Z,96971.03
2023-03-07T19:24:33.088Z,96959.97
2023-03-07T19:27:01.337Z,96977.28
2023-03-07T19:29:29.547Z,96979.72
2023-03-07T19:31:57.871Z,96978.91
2023-03-07T19:34:26.813Z,96973.06
2023-03-07T19:36:55.064Z,96978.91
2023-03-07T19:39:25.017Z,96973.25
2023-03-07T19:41:57.354Z,96990.59
2023-03-07T19:44:25.747Z,96969.63
2023-03-07T19:46:54.128Z,97000.66
2023-03-07T19:49:23.534Z,96975.50
2023-03-07T19:51:53.392Z,96987.81
2023-03-07T19:54:22.764Z,96977.94
2023-03-07T19:56:53.310Z,96988.03
2023-03-07T19:59:21.761Z,96991.81
2023-03-07T20:01:49.998Z,96986.97
2023-03-07T20:04:18.991Z,96987.22
2023-03-07T20:06:47.208Z,96989.63
2023-03-07T20:09:15.374Z,96995.44
2023-03-07T20:11:44.778Z,96992.25
2023-03-07T20:14:14.853Z,96990.44
2023-03-07T20:16:43.130Z,96990.19
2023-03-07T20:19:22.929Z,96979.56
2023-03-07T20:21:57.020Z,96999.31
2023-03-07T20:24:25.440Z,97001.13
2023-03-07T20:26:53.596Z,97016.03
2023-03-07T20:29:23.308Z,97014.41
2023-03-07T20:31:51.600Z,97016.44
2023-03-07T20:34:20.594Z,97017.44
2023-03-07T20:36:48.831Z,97018.25
2023-03-07T20:39:17.215Z,97023.13
2023-03-07T20:41:45.677Z,97024.72
2023-03-07T20:44:16.471Z,97030.38
2023-03-07T20:46:46.150Z,97030.38
2023-03-07T20:49:15.792Z,97033.19
2023-03-07T20:51:44.601Z,97038.44
2023-03-07T20:54:14.237Z,97049.72
2023-03-07T20:56:42.960Z,97053.34
2023-03-07T20:59:13.511Z,97063.41
2023-03-07T21:01:41.768Z,97067.47
2023-03-07T21:04:13.541Z,97055.38
2023-03-07T21:06:43.858Z,97062.81
2023-03-07T21:09:14.309Z,97077.31
2023-03-07T21:11:46.717Z,97076.72
2023-03-07T21:14:21.885Z,97071.88
2023-03-07T21:16:50.512Z,97059.78
2023-03-07T21:19:21.181Z,97079.94
2023-03-07T21:21:49.447Z,97081.75
2023-03-07T21:24:17.765Z,97084.38
2023-03-07T21:26:47.240Z,97074.69
2023-03-07T21:29:16.128Z,97081.38
2023-03-07T21:31:44.483Z,97077.75
2023-03-07T21:34:15.118Z,97092.22
2023-03-07T21:36:48.014Z,97084.41
2023-03-07T21:39:16.218Z,97098.91
2023-03-07T21:41:44.397Z,97099.09
2023-03-07T21:44:12.641Z,97097.06
2023-03-07T21:46:40.824Z,97110.34
2023-03-07T21:49:09.502Z,97106.94
2023-03-07T21:51:37.724Z,97114.16
2023-03-07T21:54:07.571Z,97120.41
2023-03-07T21:56:35.820Z,97127.44
2023-03-07T21:59:04.135Z,97110.16
2023-03-07T22:01:32.345Z,97109.56
2023-03-07T22:04:01.090Z,97124.63
2023-03-07T22:06:30.085Z,97130.88
2023-03-07T22:09:00.543Z,97126.06
2023-03-07T22:11:31.993Z,97132.91
2023-03-07T22:14:00.280Z,97143.38
2023-03-07T22:16:28.616Z,97148.59
2023-03-07T22:18:59.803Z,97141.56
2023-03-07T22:21:28.029Z,97148.19
2023-03-07T22:23:58.179Z,97163.06
2023-03-07T22:26:27.863Z,97143.38
2023-03-07T22:28:57.630Z,97155.66
2023-03-07T22:31:26.902Z,97172.53
2023-03-07T22:33:55.784Z,97179.78
2023-03-07T22:36:24.073Z,97182.38
2023-03-07T22:38:56.393Z,97184.00
2023-03-07T22:41:26.140Z,97176.78
2023-03-07T22:43:54.579Z,97186.22
2023-03-07T22:46:25.000Z,97187.84
2023-03-07T22:48:54.327Z,97197.31
2023-03-07T22:51:23.902Z,97190.28
2023-03-07T22:53:52.119Z,97209.41
2023-03-07T22:56:22.075Z,97212.00
2023-03-07T22:58:50.420Z,97209.97
2023-03-07T23:01:21.470Z,97210.78
2023-03-07T23:04:01.494Z,97219.25
2023-03-07T23:06:32.010Z,97211.41
2023-03-07T23:09:02.028Z,97215.81
2023-03-07T23:11:35.969Z,97216.44
2023-03-07T23:14:05.300Z,97213.63
2023-03-07T23:16:36.343Z,97218.47
2023-03-07T23:19:06.656Z,97220.09
2023-03-07T23:21:35.819Z,97230.75
2023-03-07T23:24:05.295Z,97236.97
2023-03-07T23:26:35.331Z,97234.34
2023-03-07T23:29:04.132Z,97252.47
2023-03-07T23:31:35.104Z,97255.88
2023-03-07T23:34:06.597Z,97253.47
2023-03-07T23:36:35.434Z,97251.03
2023-03-07T23:39:03.684Z,97254.47
2023-03-07T23:41:32.003Z,97252.22
2023-03-07T23:44:01.512Z,97270.53
2023-03-07T23:46:30.686Z,97268.53
2023-03-07T23:48:59.265Z,97258.28
2023-03-07T23:51:32.005Z,97274.38
2023-03-07T23:54:00.732Z,97281.81
2023-03-07T23:56:30.949Z,97305.19
2023-03-07T23:58:59.117Z,97302.75
